Time;durP1;ratioP1;P1;durP2;ratioP2;P2;SDS_P1;SDS_P2;PMS_P1;PMS_P2;Temp;Humidity;BMP_temperature;BMP_pressure;BME280_temperature;BME280_humidity;BME280_pressure;Samples;Min_cycle;Max_cycle;Signal;HPM_P1;HPM_P2
2022/03/07 00:00:25;;;;;;;19.13;11.35;;;;;;;-2.71;60.67;99114.03;3208239;23;20379;-77
2022/03/07 00:01:56;;;;;;;21.05;11.65;;;;;;;-2.70;60.33;99119.22;3206896;23;20375;-77
2022/03/07 00:03:12;;;;;;;19.88;10.68;;;;;;;-2.73;59.66;99121.66;3206851;23;20023;-76
2022/03/07 00:04:27;;;;;;;20.38;11.65;;;;;;;-2.88;60.70;99123.66;3207166;23;20031;-77
2022/03/07 00:05:43;;;;;;;20.65;11.50;;;;;;;-2.94;60.69;99111.50;3206556;23;20016;-81
2022/03/07 00:06:59;;;;;;;20.58;10.82;;;;;;;-2.87;60.92;99116.03;3206805;23;20016;-78
2022/03/07 00:08:15;;;;;;;23.42;11.95;;;;;;;-2.96;61.36;99118.25;3206551;23;20024;-77
2022/03/07 00:09:30;;;;;;;24.17;12.02;;;;;;;-2.99;61.48;99116.44;3206481;23;20021;-77
2022/03/07 00:10:46;;;;;;;20.88;11.95;;;;;;;-2.99;61.54;99113.03;3207042;23;20452;-77
2022/03/07 00:12:01;;;;;;;22.42;12.30;;;;;;;-2.94;61.40;99119.19;3206557;23;20477;-76
2022/03/07 00:13:17;;;;;;;21.88;11.15;;;;;;;-2.93;62.18;99120.03;3206261;23;20024;-76
2022/03/07 00:14:33;;;;;;;23.67;12.00;;;;;;;-2.94;62.56;99126.00;3206844;23;20459;-77
2022/03/07 00:15:49;;;;;;;24.98;13.00;;;;;;;-2.98;62.76;99120.75;3207776;23;20017;-77
2022/03/07 00:17:04;;;;;;;23.50;12.10;;;;;;;-2.93;62.82;99122.59;3207771;23;20082;-77
2022/03/07 00:18:20;;;;;;;23.58;12.48;;;;;;;-2.87;63.05;99127.97;3207663;23;20020;-76
2022/03/07 00:19:36;;;;;;;24.30;12.98;;;;;;;-2.84;63.05;99125.53;3207902;23;20017;-77
2022/03/07 00:20:51;;;;;;;21.80;12.27;;;;;;;-2.91;63.45;99121.84;3207798;23;20343;-77
2022/03/07 00:22:07;;;;;;;24.02;12.52;;;;;;;-2.95;64.17;99124.25;3207839;23;20021;-77
2022/03/07 00:23:23;;;;;;;22.45;12.43;;;;;;;-3.05;64.10;99117.91;3191361;23;20452;-76
2022/03/07 00:24:38;;;;;;;22.60;11.98;;;;;;;-3.09;64.48;99123.75;3197541;23;20021;-78
2022/03/07 00:25:54;;;;;;;21.20;11.48;;;;;;;-3.08;64.43;99128.91;3207756;23;20024;-77
2022/03/07 00:27:09;;;;;;;27.77;12.57;;;;;;;-3.02;64.32;99118.91;3207596;23;20031;-76
2022/03/07 00:28:25;;;;;;;23.80;12.23;;;;;;;-2.98;64.04;99118.19;3207904;23;20383;-77
2022/03/07 00:29:41;;;;;;;25.90;12.50;;;;;;;-2.92;63.95;99120.13;3212542;23;20020;-78
2022/03/07 00:30:56;;;;;;;23.08;11.93;;;;;;;-2.98;64.31;99123.31;3207790;23;20020;-77
2022/03/07 00:32:12;;;;;;;23.00;11.80;;;;;;;-3.05;64.81;99130.72;3207700;23;20024;-76
2022/03/07 00:33:28;;;;;;;22.08;12.23;;;;;;;-3.10;65.22;99125.41;3207517;23;20095;-76
2022/03/07 00:34:43;;;;;;;26.65;12.65;;;;;;;-3.15;65.36;99126.94;3207919;23;20452;-76
2022/03/07 00:35:59;;;;;;;24.92;12.43;;;;;;;-3.10;64.95;99130.53;3208292;23;20436;-77
2022/03/07 00:37:14;;;;;;;22.05;11.55;;;;;;;-3.06;64.96;99127.31;3207503;23;20019;-77
2022/03/07 00:38:30;;;;;;;24.95;12.75;;;;;;;-3.10;65.39;99122.84;3207545;23;20027;-76
2022/03/07 00:39:46;;;;;;;23.45;12.15;;;;;;;-3.08;65.12;99131.47;3208096;23;20046;-77
2022/03/07 00:41:02;;;;;;;22.88;12.05;;;;;;;-3.11;64.87;99131.34;3207173;23;20013;-77
2022/03/07 00:42:18;;;;;;;21.73;11.98;;;;;;;-3.09;65.23;99126.31;3207031;23;20567;-79
2022/03/07 00:43:34;;;;;;;23.52;11.73;;;;;;;-3.05;64.39;99129.03;3207787;23;20017;-77
2022/03/07 00:44:49;;;;;;;25.23;12.88;;;;;;;-3.08;64.11;99120.38;3207538;23;20074;-77
2022/03/07 00:46:05;;;;;;;24.15;12.15;;;;;;;-3.12;64.62;99121.94;3207560;23;20474;-77
2022/03/07 00:47:21;;;;;;;24.67;12.02;;;;;;;-3.08;64.64;99123.78;3207488;23;20052;-77
2022/03/07 00:48:37;;;;;;;23.15;12.25;;;;;;;-2.94;64.51;99121.75;3208069;23;20094;-76
2022/03/07 00:49:52;;;;;;;23.58;12.68;;;;;;;-3.02;64.62;99113.78;3207490;23;20446;-76
2022/03/07 00:51:08;;;;;;;21.35;11.57;;;;;;;-3.06;64.85;99122.19;3208006;23;20032;-77
2022/03/07 00:52:24;;;;;;;21.80;11.80;;;;;;;-3.06;65.27;99124.75;3207583;23;20375;-77
2022/03/07 00:53:40;;;;;;;20.83;11.77;;;;;;;-2.99;65.10;99128.41;3207714;23;20012;-77
2022/03/07 00:54:55;;;;;;;23.42;12.15;;;;;;;-2.96;64.90;99125.94;3207814;23;20066;-77
2022/03/07 00:56:10;;;;;;;26.58;12.55;;;;;;;-3.02;64.95;99128.25;3207670;23;20021;-78
2022/03/07 00:57:26;;;;;;;23.48;12.98;;;;;;;-2.96;64.72;99132.75;3207668;23;20028;-76
2022/03/07 00:58:42;;;;;;;25.17;12.40;;;;;;;-2.95;64.80;99127.69;3207194;23;20039;-77
2022/03/07 00:59:57;;;;;;;21.27;11.95;;;;;;;-2.97;64.81;99124.22;3207740;23;20025;-76
2022/03/07 01:01:13;;;;;;;23.83;12.60;;;;;;;-3.04;65.56;99135.91;3207839;23;20394;-76
2022/03/07 01:02:29;;;;;;;24.90;12.88;;;;;;;-3.05;65.38;99126.47;3207089;23;20084;-76
2022/03/07 01:03:44;;;;;;;27.13;12.57;;;;;;;-3.07;65.48;99130.69;3207727;23;20028;-76
2022/03/07 01:05:00;;;;;;;24.70;12.23;;;;;;;-3.09;65.22;99129.72;3207083;23;20017;-76
2022/03/07 01:06:16;;;;;;;24.40;13.02;;;;;;;-3.09;65.39;99121.19;3206892;23;20032;-76
2022/03/07 01:07:32;;;;;;;21.17;11.35;;;;;;;-3.12;66.25;99133.06;3207313;23;20473;-76
2022/03/07 01:08:48;;;;;;;23.15;13.32;;;;;;;-3.09;65.63;99123.75;3207083;23;20375;-76
2022/03/07 01:10:04;;;;;;;25.60;13.07;;;;;;;-3.11;65.87;99133.91;3207366;23;20329;-76
2022/03/07 01:11:19;;;;;;;27.40;13.23;;;;;;;-3.17;66.17;99126.00;3207082;23;20020;-76
2022/03/07 01:12:35;;;;;;;24.35;12.82;;;;;;;-3.23;66.52;99128.31;3207169;23;20024;-76
2022/03/07 01:13:51;;;;;;;23.17;12.15;;;;;;;-3.15;65.83;99125.22;3207361;23;20083;-79
2022/03/07 01:15:08;;;;;;;22.80;12.75;;;;;;;-3.07;65.71;99123.00;3207551;23;20020;-80
2022/03/07 01:16:23;;;;;;;26.52;13.02;;;;;;;-3.01;65.71;99114.63;3207585;23;20100;-76
2022/03/07 01:17:39;;;;;;;23.60;12.68;;;;;;;-3.06;66.06;99122.19;3207543;23;20467;-78
2022/03/07 01:18:54;;;;;;;23.00;12.30;;;;;;;-2.95;64.98;99116.56;3207376;23;20021;-76
2022/03/07 01:20:11;;;;;;;21.40;12.07;;;;;;;-2.93;65.46;99122.59;3207709;23;20078;-76
2022/03/07 01:21:26;;;;;;;24.95;12.10;;;;;;;-2.89;65.32;99116.81;3207287;23;20028;-76
2022/03/07 01:22:42;;;;;;;28.88;13.48;;;;;;;-2.89;65.81;99119.38;3207847;23;20021;-76
2022/03/07 01:23:58;;;;;;;26.13;13.50;;;;;;;-3.09;66.70;99116.91;3207541;23;20025;-76
2022/03/07 01:25:13;;;;;;;27.75;13.30;;;;;;;-3.14;66.79;99116.78;3207216;23;20021;-76
2022/03/07 01:26:29;;;;;;;28.95;13.15;;;;;;;-3.22;67.16;99117.25;3207260;23;20024;-76
2022/03/07 01:27:45;;;;;;;25.83;12.80;;;;;;;-3.22;67.79;99117.25;3207050;23;20017;-76
2022/03/07 01:29:01;;;;;;;27.08;13.95;;;;;;;-3.26;67.54;99114.59;3207262;23;20020;-76
2022/03/07 01:30:16;;;;;;;26.52;13.05;;;;;;;-3.28;68.07;99112.81;3207723;23;20024;-76
2022/03/07 01:31:32;;;;;;;28.23;13.45;;;;;;;-3.26;68.15;99111.19;3207373;23;20509;-76
2022/03/07 01:32:47;;;;;;;27.60;13.00;;;;;;;-3.14;67.46;99113.31;3207376;23;20095;-77
2022/03/07 01:34:03;;;;;;;28.08;13.48;;;;;;;-3.05;67.29;99110.22;3207430;23;20016;-76
2022/03/07 01:35:19;;;;;;;27.08;13.63;;;;;;;-3.05;67.65;99112.78;3207467;23;20028;-76
2022/03/07 01:36:35;;;;;;;27.02;13.93;;;;;;;-3.11;68.13;99110.88;3206661;23;20028;-78
2022/03/07 01:37:50;;;;;;;29.90;14.82;;;;;;;-3.09;68.11;99111.78;3207493;23;20020;-76
2022/03/07 01:39:06;;;;;;;27.67;13.20;;;;;;;-3.18;68.33;99106.34;3207211;23;20020;-76
2022/03/07 01:40:22;;;;;;;25.98;13.05;;;;;;;-3.27;69.21;99105.16;3207233;23;20027;-78
2022/03/07 01:41:38;;;;;;;25.17;13.30;;;;;;;-3.19;68.50;99112.28;3207239;23;20024;-76
2022/03/07 01:42:53;;;;;;;28.73;14.05;;;;;;;-3.26;69.15;99103.50;3207133;23;20095;-76
2022/03/07 01:44:20;;;;;;;28.52;13.50;;;;;;;-3.29;68.63;99109.34;3206867;23;20024;-76
2022/03/07 01:45:41;;;;;;;28.98;13.38;;;;;;;-3.33;69.74;99098.94;3206982;23;20032;-77
2022/03/07 01:46:57;;;;;;;24.52;13.05;;;;;;;-3.36;69.91;99096.25;3207050;23;20020;-76
2022/03/07 01:48:12;;;;;;;25.88;13.45;;;;;;;-3.39;69.60;99098.72;3207398;23;20394;-76
2022/03/07 01:49:28;;;;;;;26.50;13.40;;;;;;;-3.42;70.01;99099.47;3207406;23;20025;-76
2022/03/07 01:50:44;;;;;;;27.33;13.93;;;;;;;-3.47;70.01;99093.31;3207522;23;20017;-76
2022/03/07 01:52:00;;;;;;;26.15;13.65;;;;;;;-3.48;70.33;99099.22;3207633;23;20016;-79
2022/03/07 01:53:16;;;;;;;27.77;14.52;;;;;;;-3.49;70.17;99102.56;3207715;23;20067;-76
2022/03/07 01:54:32;;;;;;;28.77;14.50;;;;;;;-3.48;70.34;99099.22;3207366;23;20016;-77
2022/03/07 01:55:48;;;;;;;24.33;12.60;;;;;;;-3.49;70.66;99094.91;3207509;23;20020;-76
2022/03/07 01:57:04;;;;;;;25.92;13.52;;;;;;;-3.52;70.62;99100.78;3207918;23;20084;-79
2022/03/07 01:58:20;;;;;;;30.67;14.88;;;;;;;-3.51;71.26;99107.66;3207228;23;20020;-77
2022/03/07 01:59:37;;;;;;;28.90;13.90;;;;;;;-3.52;70.89;99105.03;3207634;23;20021;-76
2022/03/07 02:00:52;;;;;;;27.02;13.13;;;;;;;-3.56;71.23;99099.78;3207108;23;20174;-76
2022/03/07 02:02:08;;;;;;;28.48;14.07;;;;;;;-3.55;70.78;99098.97;3207332;23;20459;-76
2022/03/07 02:03:24;;;;;;;28.52;14.55;;;;;;;-3.57;70.94;99092.94;3207703;23;20016;-76
2022/03/07 02:04:40;;;;;;;31.33;14.07;;;;;;;-3.59;71.32;99097.13;3207144;23;20023;-76
2022/03/07 02:05:56;;;;;;;30.92;13.65;;;;;;;-3.59;70.84;99097.13;3206707;23;20027;-76
2022/03/07 02:07:12;;;;;;;30.75;14.65;;;;;;;-3.53;70.92;99091.38;3206978;23;20027;-76
2022/03/07 02:08:28;;;;;;;28.13;14.40;;;;;;;-3.49;71.11;99090.66;3206900;23;20351;-76
2022/03/07 02:09:44;;;;;;;28.27;14.10;;;;;;;-3.50;71.54;99096.59;3207094;23;20020;-75
2022/03/07 02:11:00;;;;;;;26.33;13.43;;;;;;;-3.51;71.01;99093.97;3207105;23;20046;-76
2022/03/07 02:12:16;;;;;;;31.80;14.13;;;;;;;-3.52;71.13;99092.22;3207337;23;20048;-76
2022/03/07 02:13:31;;;;;;;28.67;14.50;;;;;;;-3.48;71.40;99089.00;3207061;23;20070;-77
2022/03/07 02:14:47;;;;;;;27.25;15.10;;;;;;;-3.49;71.14;99089.78;3207017;23;20083;-78
2022/03/07 02:16:03;;;;;;;29.17;14.15;;;;;;;-3.49;71.34;99087.22;3206898;23;20404;-76
2022/03/07 02:17:18;;;;;;;28.60;14.13;;;;;;;-3.51;71.92;99086.28;3206816;23;20023;-76
2022/03/07 02:18:34;;;;;;;29.20;14.73;;;;;;;-3.49;71.68;99093.22;3206962;23;20039;-78
2022/03/07 02:19:50;;;;;;;28.58;14.18;;;;;;;-3.48;71.41;99094.13;3207379;23;20075;-77
2022/03/07 02:21:14;;;;;;;29.90;14.68;;;;;;;-3.49;71.72;99092.34;3207215;23;20020;-76
2022/03/07 02:22:29;;;;;;;30.02;14.98;;;;;;;-3.49;72.26;99097.47;3207245;23;20047;-76
2022/03/07 02:23:45;;;;;;;29.95;14.55;;;;;;;-3.51;71.50;99092.31;3207420;23;20529;-76
2022/03/07 02:25:01;;;;;;;30.20;14.15;;;;;;;-3.49;71.81;99093.22;3207179;23;20021;-76
2022/03/07 02:26:18;;;;;;;29.15;14.45;;;;;;;-3.49;72.73;99093.22;3207048;23;20017;-76
2022/03/07 02:27:34;;;;;;;27.67;14.38;;;;;;;-3.50;72.64;99091.47;3207072;23;20024;-75
2022/03/07 02:28:49;;;;;;;29.45;14.57;;;;;;;-3.49;72.60;99089.78;3206790;23;20070;-75
2022/03/07 02:30:06;;;;;;;33.58;15.30;;;;;;;-3.50;73.14;99085.47;3206392;23;20020;-77
2022/03/07 02:31:21;;;;;;;33.22;15.70;;;;;;;-3.51;73.13;99091.41;3206725;23;20020;-78
2022/03/07 02:32:39;;;;;;;30.35;14.45;;;;;;;-3.51;72.72;99091.41;3206863;23;20031;-76
2022/03/07 02:33:56;;;;;;;30.63;14.90;;;;;;;-3.49;73.21;99093.22;3206715;23;20017;-77
2022/03/07 02:35:13;;;;;;;30.10;15.55;;;;;;;-3.49;73.57;99092.34;3206777;23;20382;-78
2022/03/07 02:36:28;;;;;;;30.27;15.07;;;;;;;-3.49;73.73;99094.91;3207056;23;20092;-77
2022/03/07 02:37:44;;;;;;;31.70;14.27;;;;;;;-3.50;73.49;99094.03;3206880;23;20062;-76
2022/03/07 02:39:00;;;;;;;29.38;14.23;;;;;;;-3.49;73.92;99094.91;3206695;23;20756;-78
2022/03/07 02:40:19;;;;;;;35.35;14.88;;;;;;;-3.45;73.27;99096.78;3206396;23;20044;-77
2022/03/07 02:41:36;;;;;;;30.48;15.35;;;;;;;-3.41;72.90;99093.53;3206662;23;20028;-76
2022/03/07 02:42:52;;;;;;;28.45;14.40;;;;;;;-3.44;73.42;99083.16;3207351;23;20352;-75
2022/03/07 02:44:08;;;;;;;30.00;14.57;;;;;;;-3.45;73.62;99089.97;3207069;23;20029;-76
2022/03/07 02:45:24;;;;;;;29.73;14.18;;;;;;;-3.45;73.52;99099.34;3206957;23;20383;-77
2022/03/07 02:46:40;;;;;;;32.53;15.25;;;;;;;-3.47;73.64;99095.84;3206951;23;20017;-76
2022/03/07 02:47:55;;;;;;;32.17;14.85;;;;;;;-3.46;74.33;99092.47;3207454;23;20021;-76
2022/03/07 02:49:11;;;;;;;32.50;14.82;;;;;;;-3.41;73.64;99088.41;3207165;23;20017;-76
2022/03/07 02:50:27;;;;;;;31.63;14.07;;;;;;;-3.44;73.51;99091.72;3207009;23;20394;-77
2022/03/07 02:51:43;;;;;;;31.38;15.18;;;;;;;-3.49;74.19;99090.66;3207208;23;20100;-75
2022/03/07 02:52:59;;;;;;;25.67;13.77;;;;;;;-3.47;73.31;99093.31;3207550;23;20755;-78
2022/03/07 02:54:14;;;;;;;31.25;14.07;;;;;;;-3.45;72.78;99095.09;3207254;23;20016;-78
2022/03/07 02:55:31;;;;;;;26.33;13.77;;;;;;;-3.51;73.57;99092.31;3207479;23;20031;-78
2022/03/07 02:56:47;;;;;;;28.38;14.32;;;;;;;-3.54;73.90;99094.75;3206859;23;20436;-75
2022/03/07 02:58:03;;;;;;;31.65;14.55;;;;;;;-3.58;74.58;99093.75;3207440;23;20100;-76
2022/03/07 02:59:19;;;;;;;27.05;14.35;;;;;;;-3.48;73.51;99097.53;3207290;23;20047;-76
2022/03/07 03:00:35;;;;;;;33.22;15.13;;;;;;;-3.55;74.13;99100.69;3207375;23;20023;-78
2022/03/07 03:01:51;;;;;;;31.77;14.73;;;;;;;-3.61;74.73;99101.31;3207347;23;20019;-76
2022/03/07 03:03:06;;;;;;;27.65;14.20;;;;;;;-3.56;74.18;99096.38;3207193;23;20090;-76
2022/03/07 03:04:22;;;;;;;32.22;14.68;;;;;;;-3.61;74.48;99105.53;3207062;23;20020;-76
2022/03/07 03:05:37;;;;;;;31.35;14.15;;;;;;;-3.63;74.68;99102.06;3207032;23;20059;-76
2022/03/07 03:06:53;;;;;;;30.15;15.52;;;;;;;-3.70;75.36;99106.06;3208066;23;20020;-77
2022/03/07 03:08:09;;;;;;;33.75;15.52;;;;;;;-3.69;74.91;99097.56;3208056;23;20104;-77
2022/03/07 03:09:24;;;;;;;31.70;15.68;;;;;;;-3.66;75.09;99096.81;3208167;23;20036;-76
2022/03/07 03:10:40;;;;;;;30.83;16.23;;;;;;;-3.62;74.75;99094.44;3208817;23;20020;-76
2022/03/07 03:11:55;;;;;;;28.80;14.38;;;;;;;-3.64;75.03;99100.31;3207372;23;20020;-77
2022/03/07 03:13:11;;;;;;;29.23;14.05;;;;;;;-3.55;74.48;99101.53;3207174;23;20340;-77
2022/03/07 03:14:26;;;;;;;31.45;15.43;;;;;;;-3.58;74.87;99100.53;3190479;23;20321;-76
2022/03/07 03:15:44;;;;;;;29.42;14.65;;;;;;;-3.58;74.90;99103.09;3197051;23;20110;-77
2022/03/07 03:16:59;;;;;;;30.58;15.43;;;;;;;-3.59;74.61;99093.69;3207082;23;20714;-77
2022/03/07 03:18:16;;;;;;;32.65;15.73;;;;;;;-3.55;74.51;99093.00;3207142;23;20024;-77
2022/03/07 03:19:31;;;;;;;29.35;14.40;;;;;;;-3.51;74.29;99097.41;3207583;23;20455;-76
2022/03/07 03:20:49;;;;;;;31.52;15.23;;;;;;;-3.44;73.76;99103.66;3207053;23;20394;-78
2022/03/07 03:22:05;;;;;;;33.10;15.23;;;;;;;-3.37;73.70;99095.38;3206693;23;20059;-77
2022/03/07 03:23:22;;;;;;;31.88;16.17;;;;;;;-3.34;73.51;99094.63;3206857;23;20020;-77
2022/03/07 03:24:38;;;;;;;28.83;15.07;;;;;;;-3.45;73.28;99094.22;3206966;23;20073;-77
2022/03/07 03:25:54;;;;;;;27.85;15.05;;;;;;;-3.48;73.32;99089.00;3206891;23;20406;-77
2022/03/07 03:27:10;;;;;;;27.17;14.25;;;;;;;-3.56;74.04;99089.56;3206743;23;20267;-76
2022/03/07 03:28:26;;;;;;;32.40;14.82;;;;;;;-3.45;73.36;99089.97;3206467;23;20020;-78
2022/03/07 03:29:41;;;;;;;29.40;14.82;;;;;;;-3.56;73.80;99093.81;3212180;23;20547;-77
2022/03/07 03:30:57;;;;;;;31.55;15.82;;;;;;;-3.64;73.66;99090.94;3206618;23;20024;-77
2022/03/07 03:32:12;;;;;;;28.27;14.95;;;;;;;-3.65;73.82;99096.88;3206779;23;20016;-77
2022/03/07 03:33:28;;;;;;;27.25;14.35;;;;;;;-3.62;73.93;99093.56;3206499;23;20032;-77
2022/03/07 03:34:43;;;;;;;32.50;14.68;;;;;;;-3.51;73.88;99093.97;3206374;23;20020;-77
2022/03/07 03:35:59;;;;;;;31.13;14.68;;;;;;;-3.51;73.33;99093.97;3206861;23;20032;-77
2022/03/07 03:37:15;;;;;;;30.95;15.15;;;;;;;-3.58;74.09;99091.19;3206770;23;20120;-77
2022/03/07 03:38:30;;;;;;;31.38;15.55;;;;;;;-3.57;73.74;99082.69;3207105;23;20025;-76
2022/03/07 03:39:46;;;;;;;31.63;14.85;;;;;;;-3.55;73.94;99091.31;3206640;23;20478;-77
2022/03/07 03:41:02;;;;;;;32.63;15.32;;;;;;;-3.52;73.70;99094.78;3206727;23;20020;-76
2022/03/07 03:42:17;;;;;;;27.38;14.63;;;;;;;-3.52;73.82;99099.91;3206893;23;20066;-77
2022/03/07 03:43:33;;;;;;;27.92;14.77;;;;;;;-3.56;73.67;99096.38;3207063;23;20070;-77
2022/03/07 03:44:48;;;;;;;26.67;14.77;;;;;;;-3.57;73.70;99098.06;3207098;23;20028;-78
2022/03/07 03:46:04;;;;;;;30.35;15.65;;;;;;;-3.64;74.22;99100.31;3206734;23;20016;-77
2022/03/07 03:47:20;;;;;;;28.67;14.93;;;;;;;-3.73;74.75;99100.81;3206960;23;20219;-77
2022/03/07 03:48:36;;;;;;;29.52;14.18;;;;;;;-3.83;74.97;99105.56;3206184;23;20086;-78
2022/03/07 03:49:52;;;;;;;29.10;14.40;;;;;;;-3.88;75.33;99099.41;3206558;23;20020;-78
2022/03/07 03:51:08;;;;;;;30.15;14.95;;;;;;;-3.97;76.05;99104.13;3206511;23;20020;-77
2022/03/07 03:52:24;;;;;;;28.85;15.50;;;;;;;-4.11;76.45;99091.66;3206690;23;20028;-77
2022/03/07 03:53:39;;;;;;;31.73;14.75;;;;;;;-4.12;76.59;99096.69;3206719;23;20055;-78
2022/03/07 03:54:58;;;;;;;30.33;14.93;;;;;;;-4.18;76.35;99099.88;3206598;23;20024;-78
2022/03/07 03:56:14;;;;;;;29.52;15.07;;;;;;;-4.18;76.56;99104.13;3206900;23;20459;-77
2022/03/07 03:57:29;;;;;;;31.10;15.27;;;;;;;-4.21;76.53;99104.00;3207373;23;20424;-77
2022/03/07 03:58:45;;;;;;;30.55;14.80;;;;;;;-4.25;76.80;99092.75;3206897;23;20028;-77
2022/03/07 04:00:01;;;;;;;29.48;14.35;;;;;;;-4.24;76.76;99106.44;3207264;23;20024;-77
2022/03/07 04:01:16;;;;;;;30.48;14.77;;;;;;;-4.23;76.39;99097.94;3206344;23;20401;-78
2022/03/07 04:02:32;;;;;;;30.98;14.68;;;;;;;-4.28;76.45;99102.88;3206257;23;20020;-77
2022/03/07 04:03:47;;;;;;;30.08;15.40;;;;;;;-4.36;76.69;99099.09;3206621;23;20459;-77
2022/03/07 04:05:03;;;;;;;28.35;14.73;;;;;;;-4.43;76.86;99092.84;3207096;23;20455;-77
2022/03/07 04:06:19;;;;;;;33.38;15.38;;;;;;;-4.41;77.12;99093.78;3206832;23;20031;-77
2022/03/07 04:07:34;;;;;;;29.55;14.35;;;;;;;-4.39;76.98;99097.31;3206908;23;20346;-78
2022/03/07 04:08:55;;;;;;;30.23;15.55;;;;;;;-4.41;76.92;99101.44;3206706;23;20845;-78
2022/03/07 04:10:13;;;;;;;30.33;14.15;;;;;;;-4.47;77.10;99104.66;3206724;23;20436;-78
2022/03/07 04:11:29;;;;;;;31.67;13.98;;;;;;;-4.47;77.08;99101.22;3206664;23;20025;-78
2022/03/07 04:12:44;;;;;;;31.40;15.10;;;;;;;-4.44;77.24;99102.22;3206990;23;20020;-78
2022/03/07 04:14:00;;;;;;;31.23;14.27;;;;;;;-4.48;77.43;99109.69;3206477;23;20021;-78
2022/03/07 04:15:16;;;;;;;31.63;16.40;;;;;;;-4.48;77.20;99105.44;3207153;23;20056;-76
2022/03/07 04:16:31;;;;;;;26.65;13.52;;;;;;;-4.44;77.18;99103.88;3206630;23;20016;-76
2022/03/07 04:17:47;;;;;;;29.70;14.73;;;;;;;-4.43;76.88;99109.06;3207060;23;20021;-76
2022/03/07 04:19:02;;;;;;;29.77;14.60;;;;;;;-4.43;76.98;99116.75;3206281;23;20269;-76
2022/03/07 04:20:18;;;;;;;32.80;15.45;;;;;;;-4.46;77.72;99116.63;3206663;23;20021;-78
2022/03/07 04:21:35;;;;;;;27.70;14.45;;;;;;;-4.43;77.53;99109.06;3207314;23;20399;-77
2022/03/07 04:22:52;;;;;;;31.42;15.23;;;;;;;-4.29;76.91;99107.09;3206726;23;20389;-78
2022/03/07 04:24:10;;;;;;;30.40;15.13;;;;;;;-4.26;76.97;99111.47;3206843;23;20024;-77
2022/03/07 04:25:26;;;;;;;33.72;15.68;;;;;;;-4.26;76.96;99109.81;3189889;23;20079;-77
2022/03/07 04:26:42;;;;;;;31.38;14.50;;;;;;;-4.16;76.42;99108.50;3197117;23;20082;-77
2022/03/07 04:27:58;;;;;;;26.58;13.93;;;;;;;-3.96;76.11;99098.19;3206412;23;20025;-77
2022/03/07 04:29:14;;;;;;;28.42;15.05;;;;;;;-3.92;75.48;99105.19;3206536;23;20019;-77
2022/03/07 04:30:29;;;;;;;30.02;13.90;;;;;;;-3.88;75.13;99098.50;3206901;23;20016;-77
2022/03/07 04:31:45;;;;;;;27.95;14.63;;;;;;;-3.87;75.14;99105.38;3206664;23;20024;-77
2022/03/07 04:33:00;;;;;;;28.65;13.80;;;;;;;-3.80;74.38;99109.03;3206801;23;20028;-80
2022/03/07 04:34:16;;;;;;;28.40;14.02;;;;;;;-3.83;74.69;99109.81;3206865;23;20135;-78
2022/03/07 04:35:32;;;;;;;28.48;14.13;;;;;;;-3.87;74.94;99103.69;3206887;23;20031;-78
2022/03/07 04:36:47;;;;;;;28.08;13.95;;;;;;;-3.90;74.65;99113.81;3207350;23;20503;-77
2022/03/07 04:38:03;;;;;;;28.95;14.73;;;;;;;-3.92;75.38;99112.00;3206624;23;20025;-78
2022/03/07 04:39:19;;;;;;;26.88;13.57;;;;;;;-3.92;75.26;99110.28;3207006;23;20029;-77
2022/03/07 04:40:35;;;;;;;27.50;14.00;;;;;;;-3.83;74.41;99112.38;3206882;23;20017;-77
2022/03/07 04:41:51;;;;;;;24.98;12.70;;;;;;;-3.80;74.41;99117.63;3206659;23;20024;-78
2022/03/07 04:43:06;;;;;;;29.58;14.25;;;;;;;-3.80;74.14;99115.06;3206964;23;20028;-77
2022/03/07 04:44:22;;;;;;;25.92;13.05;;;;;;;-3.82;74.35;99121.81;3206742;23;20020;-77
2022/03/07 04:45:38;;;;;;;27.65;13.63;;;;;;;-3.87;74.29;99110.50;3206722;23;20471;-77
2022/03/07 04:46:53;;;;;;;28.38;14.80;;;;;;;-3.85;74.55;99111.41;3190667;23;20527;-78
2022/03/07 04:48:09;;;;;;;26.85;13.80;;;;;;;-3.84;74.72;99106.38;3180429;23;20028;-81
2022/03/07 04:49:24;;;;;;;26.20;13.85;;;;;;;-3.83;74.93;99107.25;3196804;23;20448;-81
2022/03/07 04:50:40;;;;;;;26.58;14.43;;;;;;;-3.89;74.92;99099.31;3206594;23;20570;-84
2022/03/07 04:51:56;;;;;;;26.10;13.52;;;;;;;-3.91;75.28;99109.50;3207172;23;20028;-81
2022/03/07 04:53:12;;;;;;;26.15;13.90;;;;;;;-3.92;75.56;99110.28;3206923;23;20492;-81
2022/03/07 04:54:27;;;;;;;25.67;13.85;;;;;;;-3.83;75.38;99109.81;3207070;23;20021;-81
2022/03/07 04:55:43;;;;;;;28.50;13.43;;;;;;;-3.80;74.92;99106.50;3206838;23;20087;-81
2022/03/07 04:56:59;;;;;;;29.15;13.75;;;;;;;-3.77;74.86;99104.03;3206611;23;20025;-81
2022/03/07 04:58:14;;;;;;;28.10;14.50;;;;;;;-3.87;74.95;99111.38;3206572;23;20321;-80
2022/03/07 04:59:30;;;;;;;30.17;14.82;;;;;;;-3.93;75.20;99093.19;3206718;23;20043;-80
2022/03/07 05:00:46;;;;;;;27.23;14.32;;;;;;;-3.89;75.60;99095.09;3206779;23;20055;-80
2022/03/07 05:02:02;;;;;;;26.73;13.82;;;;;;;-3.90;75.07;99097.56;3206778;23;20020;-80
2022/03/07 05:03:17;;;;;;;29.13;14.50;;;;;;;-3.95;74.77;99104.19;3207492;23;20028;-81
2022/03/07 05:04:33;;;;;;;28.40;14.38;;;;;;;-4.00;75.28;99098.91;3207511;23;20031;-82
2022/03/07 05:05:48;;;;;;;28.58;14.45;;;;;;;-4.01;75.74;99095.44;3207497;23;20038;-82
2022/03/07 05:07:04;;;;;;;26.25;13.73;;;;;;;-3.99;75.75;99103.19;3207394;23;20020;-82
2022/03/07 05:08:20;;;;;;;34.40;14.75;;;;;;;-3.94;75.89;99100.84;3207504;23;20463;-80
2022/03/07 05:09:35;;;;;;;30.92;13.85;;;;;;;-4.01;75.80;99105.69;3207523;23;20012;-81
2022/03/07 05:10:51;;;;;;;32.65;15.20;;;;;;;-4.01;75.91;99102.25;3207765;23;20083;-81
2022/03/07 05:12:07;;;;;;;29.17;14.43;;;;;;;-4.01;75.59;99100.56;3207783;23;20020;-81
2022/03/07 05:13:22;;;;;;;27.30;13.95;;;;;;;-4.05;76.25;99102.94;3207768;23;20023;-81
2022/03/07 05:14:38;;;;;;;27.05;14.48;;;;;;;-4.06;75.77;99111.41;3207440;23;20028;-81
2022/03/07 05:15:53;;;;;;;28.13;14.13;;;;;;;-4.15;76.67;99107.69;3207741;23;20035;-81
2022/03/07 05:17:09;;;;;;;27.52;13.55;;;;;;;-4.19;76.42;99105.81;3207793;23;20594;-87
2022/03/07 05:18:25;;;;;;;26.55;13.77;;;;;;;-4.20;76.43;99103.19;3206659;23;20352;-80
2022/03/07 05:19:40;;;;;;;31.60;14.63;;;;;;;-4.18;76.82;99104.13;3207504;23;20447;-81
2022/03/07 05:20:56;;;;;;;30.55;14.68;;;;;;;-4.25;77.09;99097.88;3207305;23;20027;-81
2022/03/07 05:22:11;;;;;;;29.80;14.18;;;;;;;-4.27;77.21;99096.94;3207613;23;20020;-81
2022/03/07 05:23:27;;;;;;;28.02;13.98;;;;;;;-4.27;77.31;99094.38;3207553;23;20017;-81
2022/03/07 05:24:43;;;;;;;30.85;14.88;;;;;;;-4.23;77.28;99098.81;3207825;23;20075;-81
2022/03/07 05:25:58;;;;;;;30.75;14.75;;;;;;;-4.22;77.18;99095.44;3207675;23;20062;-81
2022/03/07 05:27:14;;;;;;;29.30;15.50;;;;;;;-4.15;76.92;99100.00;3207837;23;20024;-82
2022/03/07 05:28:30;;;;;;;35.05;16.00;;;;;;;-4.15;77.71;99094.91;3207189;23;20422;-82
2022/03/07 05:29:46;;;;;;;29.33;15.05;;;;;;;-4.13;77.54;99090.72;3207682;23;20020;-82
2022/03/07 05:31:01;;;;;;;32.55;15.90;;;;;;;-4.17;77.40;99087.97;3207061;23;20028;-83
2022/03/07 05:32:17;;;;;;;32.03;14.77;;;;;;;-3.95;77.35;99096.53;3207385;23;20501;-82
2022/03/07 05:33:32;;;;;;;29.55;14.23;;;;;;;-3.96;76.94;99082.84;3207719;23;20020;-82
2022/03/07 05:34:48;;;;;;;32.95;15.68;;;;;;;-3.95;77.18;99091.41;3207584;23;20027;-82
2022/03/07 05:36:05;;;;;;;32.63;15.68;;;;;;;-4.02;77.56;99093.69;3207044;23;20067;-81
2022/03/07 05:37:21;;;;;;;31.45;14.88;;;;;;;-4.04;77.85;99092.78;3207527;23;20048;-82
2022/03/07 05:38:36;;;;;;;34.53;15.18;;;;;;;-4.07;77.96;99102.00;3207117;23;20028;-82
2022/03/07 05:39:52;;;;;;;32.80;15.48;;;;;;;-4.01;77.63;99098.00;3207644;23;20024;-80
2022/03/07 05:41:07;;;;;;;32.67;15.30;;;;;;;-4.00;77.70;99096.34;3207374;23;20362;-80
2022/03/07 05:42:23;;;;;;;30.88;14.95;;;;;;;-4.02;77.75;99101.38;3207523;23;20032;-80
2022/03/07 05:43:39;;;;;;;32.03;14.98;;;;;;;-4.05;77.90;99106.38;3207561;23;20078;-86
2022/03/07 05:44:54;;;;;;;32.10;14.38;;;;;;;-4.05;77.65;99105.47;3207543;23;20082;-83
2022/03/07 05:46:10;;;;;;;32.25;16.25;;;;;;;-4.03;77.57;99101.34;3207512;23;20020;-80
2022/03/07 05:47:26;;;;;;;31.05;15.98;;;;;;;-4.04;77.69;99104.69;3207159;23;20020;-83
2022/03/07 05:48:41;;;;;;;29.15;14.63;;;;;;;-3.97;77.49;99101.56;3207590;23;20448;-80